Time;durP1;ratioP1;P1;durP2;ratioP2;P2;SDS_P1;SDS_P2;PMS_P1;PMS_P2;Temp;Humidity;BMP_temperature;BMP_pressure;BME280_temperature;BME280_humidity;BME280_pressure;Samples;Min_cycle;Max_cycle;Signal;HPM_P1;HPM_P2
2021/10/07 00:01:32;;;;;;;3.80;2.87;;;8.80;99.90;;;;;;5073916;28;20219;-61
2021/10/07 00:04:00;;;;;;;4.80;2.90;;;8.80;99.90;;;;;;5074023;28;20254;-60
2021/10/07 00:06:28;;;;;;;3.63;2.97;;;8.80;99.90;;;;;;5073820;28;20293;-60
2021/10/07 00:08:55;;;;;;;6.20;3.00;;;8.70;99.90;;;;;;5073671;28;20303;-61
2021/10/07 00:11:23;;;;;;;4.63;2.77;;;8.70;99.90;;;;;;5073580;28;20716;-62
2021/10/07 00:13:52;;;;;;;3.63;2.80;;;8.70;99.90;;;;;;5073481;28;20299;-62
2021/10/07 00:16:20;;;;;;;4.40;2.60;;;8.70;99.90;;;;;;5073814;28;20233;-61
2021/10/07 00:18:51;;;;;;;4.20;2.70;;;8.80;99.90;;;;;;5073745;28;20224;-61
2021/10/07 00:21:19;;;;;;;5.17;2.60;;;8.80;99.90;;;;;;5073730;28;20269;-61
2021/10/07 00:24:00;;;;;;;3.37;2.40;;;8.80;99.90;;;;;;5073109;28;20765;-61
2021/10/07 00:26:28;;;;;;;2.53;2.33;;;8.80;99.90;;;;;;5073390;28;20712;-60
2021/10/07 00:29:02;;;;;;;4.53;2.90;;;8.80;99.90;;;;;;5073417;28;20296;-60
2021/10/07 00:31:34;;;;;;;3.00;2.70;;;8.80;99.90;;;;;;5073099;28;20256;-60
2021/10/07 00:34:12;;;;;;;2.70;2.50;;;8.90;99.90;;;;;;5073162;28;20192;-60
2021/10/07 00:36:55;;;;;;;3.60;2.77;;;8.90;99.90;;;;;;5073228;28;20276;-60
2021/10/07 00:39:22;;;;;;;3.53;2.70;;;8.80;99.90;;;;;;5073119;28;20728;-60
2021/10/07 00:41:52;;;;;;;3.00;2.70;;;8.80;99.90;;;;;;5073183;28;20266;-61
2021/10/07 00:44:21;;;;;;;3.23;2.70;;;8.80;99.90;;;;;;5073262;28;20276;-60
2021/10/07 00:46:51;;;;;;;3.30;2.90;;;8.80;99.90;;;;;;5073215;28;20240;-61
2021/10/07 00:49:20;;;;;;;4.60;2.70;;;8.80;99.90;;;;;;5073149;28;20288;-60
2021/10/07 00:51:48;;;;;;;3.23;2.93;;;8.80;99.90;;;;;;5073217;28;20580;-59
2021/10/07 00:54:18;;;;;;;3.63;3.00;;;8.80;99.90;;;;;;5072762;28;20295;-61
2021/10/07 00:56:47;;;;;;;5.83;2.87;;;8.70;99.90;;;;;;5072752;28;20690;-59
2021/10/07 00:59:15;;;;;;;4.83;2.80;;;8.70;99.90;;;;;;5072572;28;20207;-61
2021/10/07 01:01:44;;;;;;;4.10;2.67;;;8.80;99.90;;;;;;5072749;28;20224;-60
2021/10/07 01:04:14;;;;;;;4.60;2.90;;;8.80;99.90;;;;;;5072836;28;20205;-60
2021/10/07 01:06:43;;;;;;;3.97;2.50;;;8.80;99.90;;;;;;5073011;28;20196;-60
2021/10/07 01:09:16;;;;;;;5.70;2.93;;;8.90;99.90;;;;;;5072675;28;20774;-60
2021/10/07 01:11:44;;;;;;;4.13;2.70;;;8.90;99.90;;;;;;5072783;28;20586;-60
2021/10/07 01:14:12;;;;;;;3.67;2.80;;;8.90;99.90;;;;;;5072689;28;20295;-60
2021/10/07 01:16:40;;;;;;;3.40;3.03;;;8.90;99.90;;;;;;5072628;28;20300;-60
2021/10/07 01:19:09;;;;;;;4.77;2.87;;;8.80;99.90;;;;;;5072777;28;20235;-59
2021/10/07 01:21:38;;;;;;;4.20;3.37;;;8.80;99.90;;;;;;5072552;28;20763;-60
2021/10/07 01:24:06;;;;;;;4.40;3.23;;;8.80;99.90;;;;;;5072296;28;20236;-59
2021/10/07 01:26:34;;;;;;;4.17;3.00;;;8.80;99.90;;;;;;5072406;28;20758;-60
2021/10/07 01:29:01;;;;;;;3.47;2.97;;;8.80;99.90;;;;;;5072590;28;20283;-61
2021/10/07 01:31:29;;;;;;;5.57;3.43;;;8.80;99.90;;;;;;5072664;28;20312;-61
2021/10/07 01:33:57;;;;;;;3.30;3.00;;;8.70;99.90;;;;;;5072342;28;20689;-60
2021/10/07 01:36:25;;;;;;;4.30;3.20;;;8.60;99.90;;;;;;5072685;28;20197;-60
2021/10/07 01:38:54;;;;;;;5.33;3.67;;;8.60;99.90;;;;;;5072374;28;20667;-61
2021/10/07 01:41:22;;;;;;;4.20;3.20;;;8.60;99.90;;;;;;5072644;28;20215;-60
2021/10/07 01:43:55;;;;;;;3.97;3.13;;;8.50;99.90;;;;;;5072319;28;20207;-61
2021/10/07 01:46:23;;;;;;;4.83;3.20;;;8.60;99.90;;;;;;5072591;28;20285;-60
2021/10/07 01:48:51;;;;;;;4.33;3.50;;;8.60;99.90;;;;;;5072491;28;20223;-62
2021/10/07 01:51:19;;;;;;;4.07;3.53;;;8.60;99.90;;;;;;5072475;28;20200;-60
2021/10/07 01:53:46;;;;;;;4.30;3.40;;;8.60;99.90;;;;;;5072470;28;20585;-60
2021/10/07 01:56:15;;;;;;;6.40;3.80;;;8.50;99.90;;;;;;5072385;28;20231;-60
2021/10/07 01:58:43;;;;;;;4.33;3.50;;;8.50;99.90;;;;;;5072264;28;20311;-60
2021/10/07 02:01:11;;;;;;;4.07;3.03;;;8.50;99.90;;;;;;5072370;28;20295;-60
2021/10/07 02:03:39;;;;;;;4.03;3.63;;;8.50;99.90;;;;;;5072290;28;20201;-60
2021/10/07 02:06:07;;;;;;;4.07;3.00;;;8.60;99.90;;;;;;5074086;28;20200;-61
2021/10/07 02:08:35;;;;;;;5.73;3.20;;;8.50;99.90;;;;;;5076075;28;20628;-60
2021/10/07 02:11:03;;;;;;;6.27;3.70;;;8.50;99.90;;;;;;5076200;28;20200;-60
2021/10/07 02:13:32;;;;;;;3.37;3.07;;;8.40;99.90;;;;;;5075764;28;20623;-60
2021/10/07 02:16:00;;;;;;;5.73;3.50;;;8.30;99.90;;;;;;5075009;28;20300;-61
2021/10/07 02:18:28;;;;;;;4.53;4.07;;;8.30;99.90;;;;;;5075517;28;20300;-60
2021/10/07 02:20:56;;;;;;;6.90;3.53;;;8.40;99.90;;;;;;5069708;28;20292;-61
2021/10/07 02:23:24;;;;;;;4.80;3.20;;;8.30;99.90;;;;;;5066121;28;20228;-59
2021/10/07 02:25:52;;;;;;;3.97;3.33;;;8.30;99.90;;;;;;5075938;28;20300;-60
2021/10/07 02:28:19;;;;;;;4.10;3.47;;;8.30;99.90;;;;;;5075656;28;20200;-60
2021/10/07 02:30:49;;;;;;;5.03;3.40;;;8.30;99.90;;;;;;5075818;28;20283;-60
2021/10/07 02:33:16;;;;;;;5.67;3.40;;;8.30;99.90;;;;;;5075648;28;20227;-60
2021/10/07 02:35:44;;;;;;;3.80;3.50;;;8.30;99.90;;;;;;5075277;28;20656;-59
2021/10/07 02:38:12;;;;;;;4.37;3.70;;;8.20;99.90;;;;;;5075613;28;20200;-60
2021/10/07 02:40:40;;;;;;;4.97;3.53;;;8.20;99.90;;;;;;5075402;28;20211;-60
2021/10/07 02:43:08;;;;;;;5.13;3.87;;;8.20;99.90;;;;;;5075175;28;20197;-60
2021/10/07 02:45:36;;;;;;;6.80;4.17;;;8.20;99.90;;;;;;5075237;28;20670;-60
2021/10/07 02:48:06;;;;;;;5.33;3.83;;;8.20;99.90;;;;;;5075380;28;20201;-60
2021/10/07 02:50:34;;;;;;;5.03;3.80;;;8.20;99.90;;;;;;5075273;28;20310;-60
2021/10/07 02:53:02;;;;;;;4.93;3.70;;;8.20;99.90;;;;;;5075295;28;20219;-60
2021/10/07 02:55:29;;;;;;;5.77;3.63;;;8.20;99.90;;;;;;5075133;28;20565;-59
2021/10/07 02:57:57;;;;;;;4.40;3.60;;;8.20;99.90;;;;;;5075119;28;20205;-60
2021/10/07 03:00:26;;;;;;;6.37;4.00;;;8.10;99.90;;;;;;5074961;28;20891;-60
2021/10/07 03:02:54;;;;;;;6.07;3.97;;;8.10;99.90;;;;;;5075112;28;20201;-60
2021/10/07 03:05:23;;;;;;;6.17;4.10;;;8.10;99.90;;;;;;5074982;28;20201;-60
2021/10/07 03:07:51;;;;;;;5.57;4.30;;;8.10;99.90;;;;;;5075043;28;20291;-61
2021/10/07 03:10:20;;;;;;;6.53;4.37;;;8.10;99.90;;;;;;5074892;28;20228;-60
2021/10/07 03:12:47;;;;;;;5.90;4.20;;;8.10;99.90;;;;;;5074888;28;20251;-60
2021/10/07 03:15:17;;;;;;;4.30;3.67;;;8.10;99.90;;;;;;5075107;28;20200;-61
2021/10/07 03:17:44;;;;;;;5.87;4.00;;;8.00;99.90;;;;;;5074800;28;20201;-60
2021/10/07 03:20:13;;;;;;;6.63;4.30;;;8.00;99.90;;;;;;5075055;28;20646;-61
2021/10/07 03:22:42;;;;;;;9.37;4.40;;;8.00;99.90;;;;;;5074541;28;20276;-63
2021/10/07 03:25:10;;;;;;;4.27;3.87;;;8.00;99.90;;;;;;5074749;28;20189;-60
2021/10/07 03:27:39;;;;;;;5.83;4.40;;;8.00;99.90;;;;;;5074737;28;20207;-60
2021/10/07 03:30:08;;;;;;;6.80;4.60;;;7.90;99.90;;;;;;5074785;28;20307;-61
2021/10/07 03:32:36;;;;;;;4.63;4.23;;;8.00;99.90;;;;;;5074680;28;20220;-61
2021/10/07 03:35:05;;;;;;;6.67;4.50;;;7.90;99.90;;;;;;5074844;28;20618;-61
2021/10/07 03:37:32;;;;;;;7.90;4.13;;;7.90;99.90;;;;;;5074572;28;20197;-60
2021/10/07 03:40:02;;;;;;;5.43;4.30;;;7.90;99.90;;;;;;5074952;28;20204;-61
2021/10/07 03:42:30;;;;;;;5.93;4.47;;;7.90;99.90;;;;;;5075007;28;20292;-60
2021/10/07 03:44:57;;;;;;;5.97;4.00;;;7.90;99.90;;;;;;5075678;28;20204;-61
2021/10/07 03:47:25;;;;;;;5.67;4.00;;;7.80;99.90;;;;;;5074598;28;20201;-60
2021/10/07 03:49:53;;;;;;;6.23;4.47;;;7.80;99.90;;;;;;5074181;28;20296;-60
2021/10/07 03:52:21;;;;;;;6.37;4.57;;;7.80;99.90;;;;;;5074059;28;20208;-60
2021/10/07 03:54:49;;;;;;;5.03;3.97;;;7.90;99.90;;;;;;5074539;28;20247;-61
2021/10/07 03:57:18;;;;;;;5.23;4.50;;;7.90;99.90;;;;;;5075264;28;20211;-59
2021/10/07 03:59:46;;;;;;;5.37;4.57;;;7.80;99.90;;;;;;5075450;28;20287;-60
2021/10/07 04:02:14;;;;;;;5.87;4.47;;;7.80;99.90;;;;;;5074460;28;20201;-61
2021/10/07 04:04:42;;;;;;;5.33;4.57;;;7.70;99.90;;;;;;5074151;28;20783;-60
2021/10/07 04:07:10;;;;;;;5.23;4.70;;;7.70;99.90;;;;;;5073776;28;20248;-62
2021/10/07 04:09:38;;;;;;;5.63;4.47;;;7.70;99.90;;;;;;5074098;28;20287;-60
2021/10/07 04:12:07;;;;;;;5.87;4.83;;;7.70;99.90;;;;;;5073858;28;20205;-60
2021/10/07 04:14:36;;;;;;;4.93;4.30;;;7.70;99.90;;;;;;5073921;28;20249;-61
2021/10/07 04:17:04;;;;;;;8.40;5.13;;;7.70;99.90;;;;;;5074197;28;20326;-60
2021/10/07 04:19:31;;;;;;;7.00;4.87;;;7.70;99.90;;;;;;5073771;28;20200;-59
2021/10/07 04:21:59;;;;;;;5.57;4.57;;;7.70;99.90;;;;;;5073628;28;20733;-61
2021/10/07 04:24:27;;;;;;;7.17;4.57;;;7.70;99.90;;;;;;5073466;28;20337;-61
2021/10/07 04:26:55;;;;;;;6.93;4.80;;;7.70;99.90;;;;;;5073202;28;20201;-60
2021/10/07 04:29:23;;;;;;;4.93;4.43;;;7.70;99.90;;;;;;5072760;28;20201;-60
2021/10/07 04:31:52;;;;;;;5.03;4.53;;;7.70;99.90;;;;;;5073357;28;20200;-61
2021/10/07 04:34:20;;;;;;;5.40;4.70;;;7.60;99.90;;;;;;5073354;28;20275;-60
2021/10/07 04:36:48;;;;;;;7.67;5.03;;;7.60;99.90;;;;;;5072993;28;20672;-61
2021/10/07 04:39:16;;;;;;;6.57;5.53;;;7.60;99.90;;;;;;5073051;28;20676;-60
2021/10/07 04:41:44;;;;;;;7.20;5.47;;;7.60;99.90;;;;;;5073784;28;20299;-61
2021/10/07 04:44:12;;;;;;;6.80;5.07;;;7.60;99.90;;;;;;5074145;28;20220;-61
2021/10/07 04:46:39;;;;;;;7.43;5.17;;;7.70;99.90;;;;;;5073692;28;20203;-61
2021/10/07 04:49:09;;;;;;;6.43;5.40;;;7.70;99.90;;;;;;5073133;28;20204;-61
2021/10/07 04:51:36;;;;;;;7.33;5.03;;;7.70;99.90;;;;;;5072934;28;20307;-60
2021/10/07 04:54:04;;;;;;;5.83;5.13;;;7.70;99.90;;;;;;5072710;28;20691;-59
2021/10/07 04:56:32;;;;;;;6.63;4.77;;;7.70;99.90;;;;;;5072480;28;20715;-60
2021/10/07 04:59:00;;;;;;;5.93;5.27;;;7.70;99.90;;;;;;5072951;28;20630;-61
2021/10/07 05:01:28;;;;;;;7.53;5.10;;;7.70;99.90;;;;;;5073065;28;20200;-60
2021/10/07 05:03:56;;;;;;;6.43;5.40;;;7.70;99.90;;;;;;5073013;28;20204;-61
2021/10/07 05:06:25;;;;;;;7.10;5.37;;;7.70;99.90;;;;;;5072869;28;20232;-60
2021/10/07 05:08:53;;;;;;;5.47;4.93;;;7.70;99.90;;;;;;5072557;28;20201;-60
2021/10/07 05:11:21;;;;;;;6.73;5.23;;;7.70;99.90;;;;;;5072856;28;20235;-60
2021/10/07 05:13:48;;;;;;;9.33;5.60;;;7.70;99.90;;;;;;5072417;28;20707;-60
2021/10/07 05:16:17;;;;;;;6.20;5.10;;;7.70;99.90;;;;;;5072877;28;20231;-61
2021/10/07 05:18:45;;;;;;;8.10;5.40;;;7.70;99.90;;;;;;5072937;28;20295;-61
2021/10/07 05:21:13;;;;;;;5.97;5.37;;;7.60;99.90;;;;;;5072434;28;20686;-61
2021/10/07 05:23:42;;;;;;;8.67;5.83;;;7.70;99.90;;;;;;5072416;28;20412;-60
2021/10/07 05:26:10;;;;;;;6.47;5.40;;;7.70;99.90;;;;;;5072674;28;20200;-61
2021/10/07 05:28:38;;;;;;;7.77;5.80;;;7.70;99.90;;;;;;5072492;28;20288;-60
2021/10/07 05:31:05;;;;;;;7.17;5.70;;;7.70;99.90;;;;;;5072299;28;20295;-60
2021/10/07 05:33:33;;;;;;;8.10;5.73;;;7.70;99.90;;;;;;5072222;28;20770;-61
2021/10/07 05:36:01;;;;;;;8.57;6.20;;;7.70;99.90;;;;;;5072282;28;20292;-61
2021/10/07 05:38:29;;;;;;;10.00;5.87;;;7.70;99.90;;;;;;5072475;28;20201;-60
2021/10/07 05:41:00;;;;;;;8.20;6.00;;;7.70;99.90;;;;;;5075523;28;20291;-61
2021/10/07 05:43:28;;;;;;;7.77;5.90;;;7.70;99.90;;;;;;5076221;28;20185;-59
2021/10/07 05:45:55;;;;;;;10.63;6.27;;;7.80;99.90;;;;;;5076128;28;20204;-60
2021/10/07 05:48:24;;;;;;;10.17;6.70;;;7.80;99.90;;;;;;5076162;28;20196;-61
2021/10/07 05:50:52;;;;;;;7.43;6.30;;;7.80;99.90;;;;;;5076332;28;20240;-61
2021/10/07 05:53:20;;;;;;;8.80;6.10;;;7.90;99.90;;;;;;5075848;28;20295;-62
2021/10/07 05:55:48;;;;;;;8.30;6.00;;;7.90;99.90;;;;;;5076367;28;20295;-60
2021/10/07 05:58:17;;;;;;;8.83;6.30;;;7.90;99.90;;;;;;5075909;28;20296;-60
2021/10/07 06:00:45;;;;;;;9.27;6.33;;;8.00;99.90;;;;;;5076290;28;20197;-61
2021/10/07 06:03:13;;;;;;;8.63;6.37;;;8.00;99.90;;;;;;5075983;28;20234;-60
2021/10/07 06:05:41;;;;;;;8.70;6.83;;;8.00;99.90;;;;;;5076190;28;20212;-60
2021/10/07 06:08:09;;;;;;;8.40;6.60;;;8.10;99.90;;;;;;5075795;28;20204;-60
2021/10/07 06:10:36;;;;;;;7.47;6.20;;;8.10;99.90;;;;;;5075848;28;20211;-59
2021/10/07 06:13:04;;;;;;;6.70;6.00;;;8.20;99.90;;;;;;5075852;28;20209;-60
2021/10/07 06:15:34;;;;;;;7.70;6.00;;;8.30;99.90;;;;;;5075678;28;20228;-60
2021/10/07 06:18:01;;;;;;;7.17;6.20;;;8.30;99.90;;;;;;5075975;28;20226;-59
2021/10/07 06:20:33;;;;;;;7.60;5.83;;;8.40;99.90;;;;;;5075872;28;20208;-60
2021/10/07 06:23:03;;;;;;;7.67;5.47;;;8.50;99.90;;;;;;5075348;28;20324;-61
2021/10/07 06:25:34;;;;;;;7.13;5.60;;;8.50;99.90;;;;;;5075906;28;20200;-60
2021/10/07 06:28:02;;;;;;;8.07;5.23;;;8.60;99.90;;;;;;5075288;28;20224;-60
2021/10/07 06:30:30;;;;;;;6.30;5.23;;;8.70;99.90;;;;;;5075242;28;20207;-61
2021/10/07 06:32:59;;;;;;;8.90;5.77;;;8.80;99.90;;;;;;5075309;28;20243;-60
2021/10/07 06:35:28;;;;;;;10.97;5.63;;;8.90;99.90;;;;;;5075662;28;20308;-61
2021/10/07 06:37:56;;;;;;;8.53;5.50;;;9.00;99.90;;;;;;5075521;28;20642;-61
2021/10/07 06:40:25;;;;;;;5.90;5.17;;;9.10;99.90;;;;;;5075662;28;20207;-61
2021/10/07 06:42:52;;;;;;;6.13;5.40;;;9.20;99.90;;;;;;5075207;28;20205;-61
2021/10/07 06:45:20;;;;;;;8.03;5.63;;;9.30;99.90;;;;;;5075380;28;20203;-62
2021/10/07 06:47:48;;;;;;;9.53;6.53;;;9.40;99.90;;;;;;5075441;28;20236;-62
2021/10/07 06:50:17;;;;;;;7.43;5.60;;;9.50;99.90;;;;;;5075554;28;20295;-62
2021/10/07 06:52:45;;;;;;;6.63;5.47;;;9.60;99.90;;;;;;5074581;28;20207;-60
2021/10/07 06:55:13;;;;;;;6.73;5.17;;;9.70;99.90;;;;;;5075238;28;20251;-61
2021/10/07 06:57:42;;;;;;;7.40;4.87;;;9.80;99.90;;;;;;5075045;28;20284;-60
2021/10/07 07:00:11;;;;;;;6.83;5.00;;;9.90;99.90;;;;;;5075479;28;20283;-61
2021/10/07 07:02:40;;;;;;;7.23;5.13;;;10.00;99.90;;;;;;5075130;28;20196;-61
2021/10/07 07:05:09;;;;;;;7.47;5.40;;;10.10;99.90;;;;;;5075170;28;20200;-60
2021/10/07 07:07:39;;;;;;;7.07;5.40;;;10.20;99.90;;;;;;5075033;28;20287;-61
2021/10/07 07:10:08;;;;;;;8.13;5.20;;;10.30;99.90;;;;;;5074968;28;20687;-61
2021/10/07 07:12:42;;;;;;;7.27;5.00;;;10.30;99.90;;;;;;5074981;28;20242;-61
2021/10/07 07:15:11;;;;;;;8.73;5.43;;;10.50;99.90;;;;;;5074777;28;20224;-61
2021/10/07 07:17:38;;;;;;;8.10;4.60;;;10.60;99.90;;;;;;5074725;28;20630;-60
2021/10/07 07:20:08;;;;;;;6.23;5.20;;;10.70;99.90;;;;;;5074951;28;20572;-61
2021/10/07 07:22:38;;;;;;;7.70;4.80;;;10.70;99.90;;;;;;5074532;28;20197;-61
2021/10/07 07:25:07;;;;;;;5.23;3.80;;;10.80;99.90;;;;;;5074864;28;20264;-61
2021/10/07 07:27:35;;;;;;;6.17;5.13;;;10.90;99.90;;;;;;5074694;28;20220;-60
2021/10/07 07:30:04;;;;;;;8.03;4.87;;;11.00;99.90;;;;;;5074712;28;20247;-61
2021/10/07 07:32:32;;;;;;;6.07;4.80;;;11.10;99.90;;;;;;5074705;28;20211;-60
2021/10/07 07:35:00;;;;;;;7.97;5.73;;;11.20;99.90;;;;;;5074237;28;20231;-60
2021/10/07 07:37:28;;;;;;;7.17;4.83;;;11.30;99.90;;;;;;5074165;28;20610;-60
2021/10/07 07:39:58;;;;;;;8.23;5.07;;;11.40;99.90;;;;;;5074453;28;20228;-60
2021/10/07 07:42:26;;;;;;;7.53;5.13;;;11.50;99.90;;;;;;5074126;28;20292;-61
2021/10/07 07:44:53;;;;;;;7.20;4.83;;;11.50;99.90;;;;;;5073917;28;20574;-61
2021/10/07 07:47:23;;;;;;;6.13;4.47;;;11.60;99.90;;;;;;5074122;28;20291;-62
2021/10/07 07:49:51;;;;;;;5.73;4.57;;;11.60;99.90;;;;;;5074400;28;20300;-61
2021/10/07 07:52:18;;;;;;;5.20;4.60;;;11.70;99.90;;;;;;5073713;28;20656;-60
2021/10/07 07:54:46;;;;;;;5.13;4.63;;;11.70;99.90;;;;;;5074067;28;20316;-61
2021/10/07 07:57:15;;;;;;;4.40;3.97;;;11.70;99.90;;;;;;5073488;28;20660;-61
2021/10/07 07:59:43;;;;;;;4.37;3.97;;;11.80;99.90;;;;;;5073769;28;20291;-60
2021/10/07 08:02:15;;;;;;;5.23;4.13;;;11.90;99.90;;;;;;5073846;28;20200;-61
2021/10/07 08:04:44;;;;;;;6.40;4.90;;;12.00;99.90;;;;;;5073251;28;20495;-60
2021/10/07 08:07:13;;;;;;;6.63;5.30;;;12.10;99.90;;;;;;5073702;28;20208;-60
2021/10/07 08:09:44;;;;;;;6.20;4.90;;;12.20;99.90;;;;;;5073622;28;20213;-62
2021/10/07 08:12:12;;;;;;;7.23;5.13;;;12.20;99.90;;;;;;5073489;28;20690;-61
2021/10/07 08:14:43;;;;;;;5.83;4.30;;;12.30;99.90;;;;;;5073516;28;20288;-61
2021/10/07 08:17:11;;;;;;;5.33;4.83;;;12.40;99.90;;;;;;5073743;28;20185;-60
2021/10/07 08:19:39;;;;;;;5.30;4.80;;;12.50;99.90;;;;;;5072179;28;20295;-64
2021/10/07 08:22:08;;;;;;;5.10;4.50;;;12.60;99.90;;;;;;5069783;28;20211;-61
2021/10/07 08:24:36;;;;;;;4.40;4.00;;;12.70;99.90;;;;;;5070069;28;20264;-61
2021/10/07 08:27:04;;;;;;;4.75;4.20;;;12.80;99.90;;;;;;5070072;28;20649;-61
2021/10/07 08:29:32;;;;;;;5.27;4.57;;;12.90;99.90;;;;;;5070244;28;20196;-62
2021/10/07 08:32:01;;;;;;;4.63;4.03;;;12.90;99.90;;;;;;5070254;28;20241;-60
2021/10/07 08:34:30;;;;;;;6.03;4.47;;;13.00;99.90;;;;;;5069874;28;20236;-60
2021/10/07 08:36:57;;;;;;;5.90;4.50;;;13.10;99.90;;;;;;5070125;28;20205;-60
2021/10/07 08:39:26;;;;;;;5.68;4.38;;;13.20;99.90;;;;;;5069859;28;20207;-60
2021/10/07 08:41:53;;;;;;;7.93;4.50;;;13.30;99.90;;;;;;5070117;28;20235;-60
2021/10/07 08:44:21;;;;;;;5.57;4.13;;;13.20;99.90;;;;;;5069945;28;20205;-63
2021/10/07 08:46:51;;;;;;;6.53;5.05;;;13.40;99.90;;;;;;5069987;28;20221;-60
2021/10/07 08:49:24;;;;;;;4.27;3.87;;;13.30;99.90;;;;;;5069837;28;20197;-60
2021/10/07 08:51:52;;;;;;;4.22;3.45;;;13.40;99.90;;;;;;5070015;28;20218;-59
2021/10/07 08:54:21;;;;;;;4.45;3.10;;;13.40;99.90;;;;;;5069571;28;20205;-60
2021/10/07 08:56:49;;;;;;;5.80;3.10;;;13.50;99.90;;;;;;5063475;28;20205;-60
2021/10/07 08:59:18;;;;;;;4.03;3.47;;;13.60;99.90;;;;;;5049834;28;20208;-59
2021/10/07 09:01:49;;;;;;;3.97;3.10;;;13.60;99.90;;;;;;5056496;28;20208;-60
2021/10/07 09:04:21;;;;;;;5.22;3.60;;;13.70;99.90;;;;;;5069756;28;20638;-58
2021/10/07 09:06:50;;;;;;;4.53;3.33;;;13.80;99.90;;;;;;5069902;28;20187;-60
2021/10/07 09:09:24;;;;;;;4.45;3.67;;;13.90;99.90;;;;;;5069645;28;20666;-59
2021/10/07 09:11:54;;;;;;;3.63;3.33;;;14.00;99.90;;;;;;5069866;28;20200;-64
2021/10/07 09:14:27;;;;;;;4.25;3.30;;;14.10;99.90;;;;;;5069354;28;20307;-63
2021/10/07 09:16:56;;;;;;;5.20;3.58;;;14.20;99.90;;;;;;5069663;28;20578;-62
2021/10/07 09:19:27;;;;;;;3.55;3.25;;;14.30;99.90;;;;;;5069819;28;20310;-64
2021/10/07 09:21:58;;;;;;;3.45;3.13;;;14.40;99.90;;;;;;5069650;28;20181;-57
2021/10/07 09:24:32;;;;;;;4.45;2.42;;;14.50;99.90;;;;;;5069174;28;20233;-60
2021/10/07 09:27:03;;;;;;;5.20;2.45;;;14.60;99.90;;;;;;5069153;28;20177;-60
2021/10/07 09:29:36;;;;;;;4.38;2.95;;;14.60;99.90;;;;;;5069417;28;20236;-61
2021/10/07 09:32:06;;;;;;;3.47;2.80;;;14.50;99.90;;;;;;5069297;28;20185;-61
2021/10/07 09:34:47;;;;;;;4.65;3.30;;;14.50;99.90;;;;;;5062728;28;20208;-61
2021/10/07 09:37:23;;;;;;;3.20;2.50;;;14.60;99.90;;;;;;5063147;28;20272;-61
2021/10/07 09:39:52;;;;;;;2.75;2.35;;;14.50;99.90;;;;;;5051895;28;20659;-61
2021/10/07 09:42:22;;;;;;;3.78;2.58;;;14.50;99.90;;;;;;5068683;28;20724;-60
2021/10/07 09:45:05;;;;;;;4.18;3.00;;;14.60;99.90;;;;;;5068987;28;20223;-60
2021/10/07 09:47:35;;;;;;;6.82;2.90;;;14.70;99.90;;;;;;5069166;28;20181;-59
2021/10/07 09:50:18;;;;;;;2.78;2.42;;;14.80;99.90;;;;;;5069136;28;20736;-60
2021/10/07 09:52:47;;;;;;;5.20;2.50;;;14.90;99.90;;;;;;5068978;28;20284;-60
2021/10/07 09:55:17;;;;;;;3.88;2.65;;;15.00;99.90;;;;;;5069761;28;20893;-61
2021/10/07 09:57:59;;;;;;;5.18;2.78;;;15.00;99.90;;;;;;5068764;28;20319;-61
2021/10/07 10:00:30;;;;;;;3.20;2.38;;;15.10;99.90;;;;;;5068727;28;20216;-59
2021/10/07 10:03:00;;;;;;;3.38;2.50;;;15.30;99.90;;;;;;5069207;28;20193;-60
2021/10/07 10:05:31;;;;;;;2.83;2.25;;;15.20;99.90;;;;;;5069093;28;20192;-61
2021/10/07 10:07:59;;;;;;;3.28;2.10;;;15.20;99.90;;;;;;5068740;28;20196;-61
2021/10/07 10:10:28;;;;;;;4.20;2.05;;;15.30;99.90;;;;;;5068798;28;20232;-60
2021/10/07 10:12:56;;;;;;;2.15;1.90;;;15.20;99.90;;;;;;5068911;28;20296;-61
2021/10/07 10:15:25;;;;;;;6.65;2.28;;;15.20;99.90;;;;;;5069036;28;20232;-63
2021/10/07 10:17:53;;;;;;;3.20;2.10;;;15.20;99.90;;;;;;5068930;28;20220;-61
2021/10/07 10:20:24;;;;;;;2.70;2.15;;;15.20;99.90;;;;;;5068711;28;20299;-61
2021/10/07 10:22:57;;;;;;;2.92;2.08;;;15.20;99.90;;;;;;5068535;28;20256;-60
2021/10/07 10:25:27;;;;;;;2.38;2.05;;;15.30;99.90;;;;;;5068784;28;20652;-60
2021/10/07 10:27:57;;;;;;;2.17;1.98;;;15.30;99.90;;;;;;5071418;28;20227;-60
2021/10/07 10:30:29;;;;;;;2.40;2.20;;;15.30;99.90;;;;;;5072344;28;20271;-60
2021/10/07 10:32:58;;;;;;;3.13;2.33;;;15.10;99.90;;;;;;5072632;28;20181;-60
2021/10/07 10:35:45;;;;;;;3.95;2.00;;;15.20;99.90;;;;;;5072339;28;20189;-60
2021/10/07 10:38:14;;;;;;;3.40;1.83;;;15.20;99.90;;;;;;5072037;28;20205;-60
2021/10/07 10:40:42;;;;;;;3.38;1.70;;;15.30;99.90;;;;;;5072411;28;20283;-61
2021/10/07 10:43:22;;;;;;;3.67;2.33;;;15.40;99.90;;;;;;5072412;28;20209;-60
2021/10/07 10:46:10;;;;;;;2.63;1.80;;;15.60;99.90;;;;;;5071876;28;20280;-60
2021/10/07 10:49:01;;;;;;;2.13;1.90;;;15.80;99.90;;;;;;5068803;28;20288;-59
2021/10/07 10:51:37;;;;;;;2.75;1.88;;;15.90;99.90;;;;;;5050833;28;20276;-60
2021/10/07 10:54:10;;;;;;;2.33;1.70;;;15.80;99.90;;;;;;5052302;28;20272;-59
2021/10/07 10:56:58;;;;;;;3.42;1.80;;;15.70;99.90;;;;;;5051997;28;20210;-60
2021/10/07 10:59:30;;;;;;;3.83;1.70;;;15.70;99.90;;;;;;5051852;28;20192;-62
2021/10/07 11:02:26;;;;;;;2.85;1.75;;;15.90;99.90;;;;;;5052039;28;20256;-60
2021/10/07 11:04:56;;;;;;;2.13;1.67;;;15.90;99.90;;;;;;5051728;28;20213;-60
2021/10/07 11:07:30;;;;;;;1.58;1.42;;;16.00;99.90;;;;;;5051602;28;20597;-59
2021/10/07 11:10:11;;;;;;;3.83;1.98;;;16.00;99.90;;;;;;5051962;28;20269;-60
2021/10/07 11:12:47;;;;;;;1.52;1.42;;;16.10;99.90;;;;;;5051530;28;20542;-59
2021/10/07 11:15:17;;;;;;;1.50;1.40;;;16.10;99.90;;;;;;5051309;28;20192;-66
2021/10/07 11:17:46;;;;;;;3.70;1.60;;;16.20;99.90;;;;;;5051493;28;20205;-67
2021/10/07 11:20:18;;;;;;;3.08;1.60;;;16.20;99.90;;;;;;5051817;28;20208;-67
2021/10/07 11:23:11;;;;;;;3.45;1.60;;;16.30;99.90;;;;;;5051198;28;20237;-59
2021/10/07 11:25:43;;;;;;;2.58;1.30;;;16.40;99.90;;;;;;5051171;28;20803;-59
2021/10/07 11:28:11;;;;;;;2.33;1.25;;;16.40;99.90;;;;;;5051454;28;20187;-60
2021/10/07 11:30:41;;;;;;;1.92;1.40;;;16.60;99.90;;;;;;5051065;28;20197;-59
2021/10/07 11:33:10;;;;;;;2.42;1.58;;;16.60;99.90;;;;;;5051610;28;20651;-51
2021/10/07 11:35:38;;;;;;;2.25;1.70;;;16.70;99.90;;;;;;5051434;28;20205;-52
2021/10/07 11:38:15;;;;;;;1.30;1.20;;;16.60;99.90;;;;;;5050969;28;20235;-60
2021/10/07 11:40:51;;;;;;;2.70;1.40;;;16.80;99.90;;;;;;5051119;28;20276;-62
2021/10/07 11:43:21;;;;;;;1.98;1.40;;;16.70;99.90;;;;;;5050975;28;20204;-61
2021/10/07 11:45:51;;;;;;;3.22;1.58;;;16.80;99.90;;;;;;5070299;28;20227;-60
2021/10/07 11:48:20;;;;;;;1.73;1.38;;;16.90;99.90;;;;;;5071270;28;20203;-62
2021/10/07 11:50:49;;;;;;;1.30;1.20;;;17.00;99.90;;;;;;5070798;28;20228;-61
2021/10/07 11:53:28;;;;;;;4.43;1.85;;;17.10;99.90;;;;;;5070889;28;20232;-62
2021/10/07 11:55:58;;;;;;;2.03;1.67;;;17.30;99.90;;;;;;5070914;28;20620;-63
2021/10/07 11:58:27;;;;;;;4.35;2.20;;;17.30;99.90;;;;;;5070905;28;20305;-61
2021/10/07 12:00:56;;;;;;;2.70;2.00;;;17.20;99.90;;;;;;5071057;28;20236;-61
2021/10/07 12:03:27;;;;;;;3.03;2.10;;;17.20;99.90;;;;;;5070809;28;20254;-60
2021/10/07 12:05:58;;;;;;;2.20;1.85;;;17.30;99.90;;;;;;5070787;28;20191;-59
2021/10/07 12:08:28;;;;;;;2.55;1.80;;;17.30;99.90;;;;;;5070631;28;20284;-60
2021/10/07 12:11:00;;;;;;;2.25;1.92;;;17.40;99.90;;;;;;5070902;28;20303;-59
2021/10/07 12:13:30;;;;;;;1.42;1.20;;;17.50;99.90;;;;;;5070619;28;20276;-60
2021/10/07 12:16:00;;;;;;;2.13;1.58;;;17.50;99.90;;;;;;5070695;28;20203;-59
2021/10/07 12:18:29;;;;;;;2.75;1.83;;;17.30;99.90;;;;;;5070562;28;20212;-60
2021/10/07 12:21:01;;;;;;;2.30;1.80;;;17.20;99.90;;;;;;5070481;28;20283;-61
2021/10/07 12:23:30;;;;;;;3.35;1.88;;;17.10;99.90;;;;;;5070198;28;20228;-61
2021/10/07 12:26:02;;;;;;;3.47;2.30;;;16.90;99.90;;;;;;5070361;28;20291;-61
2021/10/07 12:28:31;;;;;;;2.17;1.95;;;17.10;99.90;;;;;;5070430;28;20263;-60
2021/10/07 12:31:02;;;;;;;4.22;1.85;;;17.30;99.90;;;;;;5070371;28;20228;-60
2021/10/07 12:33:33;;;;;;;2.60;1.88;;;17.30;99.90;;;;;;5070140;28;20185;-61
2021/10/07 12:36:04;;;;;;;2.15;1.70;;;17.10;99.90;;;;;;5070551;28;20185;-63
2021/10/07 12:38:50;;;;;;;1.98;1.73;;;16.90;99.90;;;;;;5070318;28;20211;-65
2021/10/07 12:41:31;;;;;;;3.42;1.80;;;16.90;99.90;;;;;;5070408;28;20272;-66
2021/10/07 12:43:59;;;;;;;2.20;1.40;;;16.80;99.90;;;;;;5070045;28;20617;-71
2021/10/07 12:46:28;;;;;;;2.88;1.60;;;16.60;99.90;;;;;;5070166;28;20207;-60
2021/10/07 12:48:57;;;;;;;3.40;1.85;;;16.60;99.90;;;;;;5069088;28;20208;-60
2021/10/07 12:51:27;;;;;;;3.75;1.75;;;16.50;99.90;;;;;;5070100;28;20264;-64
2021/10/07 12:53:55;;;;;;;4.47;1.83;;;16.50;99.90;;;;;;5069806;28;20295;-58
2021/10/07 12:56:29;;;;;;;2.58;1.73;;;16.50;99.90;;;;;;5069960;28;20211;-55
2021/10/07 12:59:01;;;;;;;2.80;1.50;;;16.40;99.90;;;;;;5070008;28;20308;-61
2021/10/07 13:01:38;;;;;;;2.35;1.20;;;16.50;99.90;;;;;;5052984;28;20181;-61
2021/10/07 13:04:14;;;;;;;1.17;1.08;;;16.60;99.90;;;;;;5052910;28;20239;-62
2021/10/07 13:06:43;;;;;;;2.50;1.33;;;16.60;99.90;;;;;;5052869;28;20193;-61